createdAt,value
2022-11-02T00:01:20.537Z,100455.94
2022-11-02T00:06:45.967Z,100466.91
2022-11-02T00:12:01.998Z,100477.25
2022-11-02T00:17:17.047Z,100465.50
2022-11-02T00:22:34.791Z,100465.50
2022-11-02T00:27:43.933Z,100462.97
2022-11-02T00:44:27.594Z,100477.34
2022-11-02T00:49:50.622Z,100474.78
2022-11-02T00:55:02.662Z,100489.06
2022-11-02T01:00:19.241Z,100465.25
2022-11-02T01:05:29.693Z,100490.50
2022-11-02T01:10:55.394Z,100482.00
2022-11-02T01:29:17.003Z,100454.28
2022-11-02T01:34:21.591Z,100474.56
2022-11-02T01:39:54.750Z,100471.25
2022-11-02T01:50:50.083Z,100445.06
2022-11-02T01:56:16.533Z,100447.44
2022-11-02T02:01:25.605Z,100435.63
2022-11-02T02:20:12.503Z,100450.88
2022-11-02T02:31:21.322Z,100472.66
2022-11-02T02:36:39.284Z,100477.91
2022-11-02T02:41:49.134Z,100482.13
2022-11-02T02:46:58.613Z,100496.47
2022-11-02T02:52:01.202Z,100488.97
2022-11-02T03:03:12.052Z,100493.19
2022-11-02T03:08:21.684Z,100498.44
2022-11-02T03:13:46.894Z,100512.75
2022-11-02T03:19:00.355Z,100512.00
2022-11-02T03:24:14.536Z,100511.91
2022-11-02T03:29:40.128Z,100496.72
2022-11-02T03:34:55.832Z,100502.50
2022-11-02T03:40:15.197Z,100514.34
2022-11-02T03:45:26.656Z,100522.84
2022-11-02T03:50:39.334Z,100528.75
2022-11-02T03:56:03.262Z,100538.97
2022-11-02T04:01:09.149Z,100522.84
2022-11-02T04:06:13.972Z,100530.44
2022-11-02T04:11:38.548Z,100524.56
2022-11-02T04:16:44.670Z,100534.84
2022-11-02T04:22:13.413Z,100524.69
2022-11-02T04:27:21.192Z,100528.84
2022-11-02T04:32:44.567Z,100513.66
2022-11-02T04:38:09.153Z,100504.38
2022-11-02T04:43:15.354Z,100510.28
2022-11-02T04:48:17.833Z,100505.13
2022-11-02T04:53:22.060Z,100526.31
2022-11-02T04:58:24.399Z,100535.63
2022-11-02T05:03:26.555Z,100538.09
2022-11-02T05:08:28.758Z,100529.75
2022-11-02T05:13:30.834Z,100538.16
2022-11-02T05:18:36.721Z,100540.75
2022-11-02T05:23:39.256Z,100527.09
2022-11-02T05:28:44.073Z,100533.91
2022-11-02T05:33:46.131Z,100531.19
2022-11-02T05:38:56.392Z,100540.38
2022-11-02T05:44:01.857Z,100535.78
2022-11-02T05:49:05.867Z,100556.06
2022-11-02T05:54:07.727Z,100532.38
2022-11-02T05:59:10.267Z,100544.88
2022-11-02T06:04:12.399Z,100559.97
2022-11-02T06:09:14.281Z,100556.31
2022-11-02T06:14:16.263Z,100539.38
2022-11-02T06:19:18.057Z,100549.41
2022-11-02T06:24:20.006Z,100559.28
2022-11-02T06:29:21.789Z,100578.78
2022-11-02T06:34:23.570Z,100574.47
2022-11-02T06:39:26.359Z,100589.91
2022-11-02T06:44:28.440Z,100587.41
2022-11-02T06:49:30.431Z,100594.22
2022-11-02T06:54:32.287Z,100624.09
2022-11-02T06:59:33.996Z,100605.66
2022-11-02T07:04:35.845Z,100616.13
2022-11-02T07:09:38.257Z,100613.03
2022-11-02T07:14:40.031Z,100616.72
2022-11-02T07:19:42.080Z,100635.78
2022-11-02T07:24:43.850Z,100638.97
2022-11-02T07:29:45.658Z,100641.06
2022-11-02T07:34:47.638Z,100621.94
2022-11-02T07:39:49.910Z,100627.25
2022-11-02T07:44:51.714Z,100636.91
2022-11-02T07:49:53.781Z,100626.59
2022-11-02T07:54:55.631Z,100617.50
2022-11-02T07:59:57.412Z,100603.94
2022-11-02T08:04:59.110Z,100606.59
2022-11-02T08:10:00.907Z,100610.16
2022-11-02T08:15:07.335Z,100607.78
2022-11-02T08:20:10.188Z,100602.94
2022-11-02T08:25:11.941Z,100610.78
2022-11-02T08:30:13.839Z,100599.25
2022-11-02T08:35:15.674Z,100609.44
2022-11-02T08:40:17.390Z,100604.38
2022-11-02T08:45:19.198Z,100606.06
2022-11-02T08:50:24.252Z,100606.34
2022-11-02T08:55:26.231Z,100605.72
2022-11-02T09:00:30.639Z,100582.94
2022-11-02T09:05:38.464Z,100594.91
2022-11-02T09:10:40.401Z,100589.13
2022-11-02T09:15:42.294Z,100592.59
2022-11-02T09:20:45.643Z,100579.09
2022-11-02T09:25:48.307Z,100580.81
2022-11-02T09:30:50.064Z,100583.38
2022-11-02T09:35:51.835Z,100580.00
2022-11-02T09:40:59.665Z,100577.47
2022-11-02T09:46:09.538Z,100576.72
2022-11-02T09:51:19.029Z,100562.38
2022-11-02T09:56:20.944Z,100572.53
2022-11-02T10:01:33.623Z,100570.00
2022-11-02T10:06:38.064Z,100566.66
2022-11-02T10:12:08.406Z,100550.53
2022-11-02T10:17:15.362Z,100557.31
2022-11-02T10:22:17.270Z,100557.31
2022-11-02T10:27:34.205Z,100560.69
2022-11-02T10:32:39.637Z,100542.94
2022-11-02T10:38:11.947Z,100556.41
2022-11-02T10:43:24.528Z,100557.25
2022-11-02T10:48:43.851Z,100558.94
2022-11-02T10:53:50.337Z,100542.78
2022-11-02T10:59:10.679Z,100549.53
2022-11-02T11:04:28.370Z,100540.13
2022-11-02T11:10:06.492Z,100545.88
2022-11-02T11:20:50.447Z,100529.44
2022-11-02T11:26:35.792Z,100516.72
2022-11-02T11:31:37.716Z,100515.69
2022-11-02T11:36:47.303Z,100527.47
2022-11-02T11:41:50.948Z,100529.09
2022-11-02T11:46:59.773Z,100512.19
2022-11-02T11:52:08.074Z,100504.47
2022-11-02T11:57:31.619Z,100523.88
2022-11-02T12:02:43.807Z,100502.63
2022-11-02T12:07:57.200Z,100510.22
2022-11-02T12:13:13.056Z,100507.66
2022-11-02T12:18:37.310Z,100511.91
2022-11-02T12:23:54.486Z,100511.03
2022-11-02T12:28:59.144Z,100501.63
2022-11-02T12:34:12.761Z,100499.88
2022-11-02T12:39:34.182Z,100493.94
2022-11-02T12:44:48.050Z,100480.22
2022-11-02T12:50:14.715Z,100487.81
2022-11-02T13:01:56.719Z,100472.63
2022-11-02T13:07:15.575Z,100471.75
2022-11-02T13:12:41.609Z,100480.19
2022-11-02T13:18:45.103Z,100459.03
2022-11-02T13:24:32.056Z,100465.09
2022-11-02T13:29:50.968Z,100464.25
2022-11-02T13:35:45.062Z,100448.19
2022-11-02T13:41:09.902Z,100460.03
2022-11-02T13:47:10.647Z,100458.44
2022-11-02T13:52:38.832Z,100464.38
2022-11-02T14:04:02.354Z,100457.88
2022-11-02T14:15:17.846Z,100480.91
2022-11-02T14:20:50.631Z,100481.00
2022-11-02T14:26:10.367Z,100473.44
2022-11-02T14:31:45.529Z,100477.75
2022-11-02T14:37:22.764Z,100475.34
2022-11-02T14:43:38.036Z,100477.00
2022-11-02T14:54:30.303Z,100497.50
2022-11-02T14:59:48.081Z,100495.00
2022-11-02T15:05:36.865Z,100509.53
2022-11-02T15:22:47.779Z,100528.31
2022-11-02T15:28:29.711Z,100543.66
2022-11-02T15:33:38.518Z,100545.38
2022-11-02T15:38:44.361Z,100550.50
2022-11-02T15:44:13.879Z,100562.34
2022-11-02T15:49:46.379Z,100550.53
2022-11-02T15:55:27.065Z,100578.44
2022-11-02T16:00:41.526Z,100575.06
2022-11-02T16:05:47.955Z,100581.88
2022-11-02T16:10:54.189Z,100572.53
2022-11-02T16:16:05.276Z,100591.16
2022-11-02T16:21:15.305Z,100599.59
2022-11-02T16:26:22.367Z,100586.03
2022-11-02T16:31:32.147Z,100601.13
2022-11-02T16:36:37.846Z,100605.28
2022-11-02T16:41:40.923Z,100618.75
2022-11-02T16:46:51.117Z,100614.47
2022-11-02T16:52:22.721Z,100619.47
2022-11-02T16:57:31.064Z,100612.66
2022-11-02T17:02:40.781Z,100647.28
2022-11-02T17:07:44.433Z,100648.06
2022-11-02T17:12:50.181Z,100620.94
2022-11-02T17:18:23.962Z,100636.91
2022-11-02T17:23:34.578Z,100646.16
2022-11-02T17:28:40.875Z,100651.13
2022-11-02T17:33:43.905Z,100653.63
2022-11-02T17:38:46.342Z,100659.41
2022-11-02T17:43:53.201Z,100653.28
2022-11-02T17:48:59.148Z,100655.75
2022-11-02T17:54:08.664Z,100665.00
2022-11-02T17:59:26.022Z,100649.72
2022-11-02T18:04:36.161Z,100642.97
2022-11-02T18:09:40.624Z,100641.22
2022-11-02T18:14:44.622Z,100633.66
2022-11-02T18:19:56.222Z,100618.44
2022-11-02T18:25:02.859Z,100613.44
2022-11-02T18:30:31.606Z,100612.63
2022-11-02T18:42:29.894Z,100620.22
2022-11-02T18:47:35.200Z,100627.59
2022-11-02T18:52:45.076Z,100608.03
2022-11-02T18:57:51.090Z,100634.13
2022-11-02T19:02:55.694Z,100630.66
2022-11-02T19:08:28.992Z,100640.75
2022-11-02T19:13:32.390Z,100636.34
2022-11-02T19:24:26.526Z,100637.06
2022-11-02T19:29:30.580Z,100628.63
2022-11-02T19:34:33.860Z,100636.25
2022-11-02T19:39:39.920Z,100653.91
2022-11-02T19:44:48.498Z,100644.44
2022-11-02T19:50:06.375Z,100664.69
2022-11-02T19:55:29.943Z,100657.84
2022-11-02T20:00:44.052Z,100670.38
2022-11-02T20:05:56.484Z,100656.81
2022-11-02T20:11:14.384Z,100671.97
2022-11-02T20:16:21.989Z,100660.03
2022-11-02T20:21:31.573Z,100654.94
2022-11-02T20:32:56.720Z,100669.25
2022-11-02T20:38:10.349Z,100670.00
2022-11-02T20:43:14.828Z,100677.47
2022-11-02T20:54:19.922Z,100685.19
2022-11-02T20:59:22.559Z,100678.09
2022-11-02T21:04:24.556Z,100697.94
2022-11-02T21:09:26.549Z,100690.22
2022-11-02T21:14:28.562Z,100683.25
2022-11-02T21:19:30.411Z,100687.41
2022-11-02T21:24:32.389Z,100694.06
2022-11-02T21:29:34.957Z,100688.75
2022-11-02T21:34:37.501Z,100690.41
2022-11-02T21:39:41.990Z,100672.31
2022-11-02T21:44:44.140Z,100665.63
2022-11-02T21:49:46.141Z,100681.63
2022-11-02T21:54:49.990Z,100671.31
2022-11-02T22:00:00.182Z,100674.66
2022-11-02T22:05:02.097Z,100670.59
2022-11-02T22:10:29.833Z,100687.38
2022-11-02T22:15:39.716Z,100676.94
2022-11-02T22:20:42.638Z,100674.00
2022-11-02T22:26:00.624Z,100689.91
2022-11-02T22:31:17.017Z,100665.03
2022-11-02T22:36:21.322Z,100683.50
2022-11-02T22:41:42.922Z,100682.44
2022-11-02T22:46:50.328Z,100671.31
2022-11-02T22:52:13.237Z,100682.16
2022-11-02T22:57:15.339Z,100685.75
2022-11-02T23:02:43.984Z,100698.31
2022-11-02T23:08:14.225Z,100695.28
2022-11-02T23:13:35.307Z,100690.69
2022-11-02T23:19:01.063Z,100687.91
2022-11-02T23:24:30.275Z,100682.78
2022-11-02T23:29:51.007Z,100670.03
2022-11-02T23:35:22.107Z,100679.97
2022-11-02T23:40:33.121Z,100675.44
2022-11-02T23:45:50.003Z,100694.16
2022-11-02T23:51:10.616Z,100693.97
2022-11-02T23:56:35.523Z,100691.31
